createdAt,value
2019-01-27T00:01:29.810Z,92.70
2019-01-27T00:03:59.836Z,92.90
2019-01-27T00:06:28.787Z,93.30
2019-01-27T00:09:04.446Z,93.20
2019-01-27T00:11:32.049Z,93.40
2019-01-27T00:13:57.247Z,93.60
2019-01-27T00:16:25.043Z,93.90
2019-01-27T00:18:52.680Z,93.90
2019-01-27T00:21:20.610Z,93.80
2019-01-27T00:23:48.453Z,93.70
2019-01-27T00:26:16.363Z,93.60
2019-01-27T00:28:44.048Z,94.00
2019-01-27T00:31:11.835Z,93.80
2019-01-27T00:33:40.946Z,93.70
2019-01-27T00:36:08.598Z,93.90
2019-01-27T00:38:39.490Z,93.60
2019-01-27T00:41:07.249Z,93.70
2019-01-27T00:43:34.908Z,93.60
2019-01-27T00:46:02.610Z,93.40
2019-01-27T00:48:30.941Z,93.30
2019-01-27T00:50:58.604Z,93.60
2019-01-27T00:53:27.926Z,93.10
2019-01-27T00:55:55.867Z,93.10
2019-01-27T00:58:27.701Z,93.10
2019-01-27T01:00:55.408Z,93.00
2019-01-27T01:03:23.556Z,93.00
2019-01-27T01:05:51.563Z,93.10
2019-01-27T01:08:19.378Z,93.60
2019-01-27T01:10:47.122Z,93.80
2019-01-27T01:13:16.312Z,94.00
2019-01-27T01:15:44.096Z,93.90
2019-01-27T01:18:13.291Z,94.10
2019-01-27T01:20:41.090Z,94.00
2019-01-27T01:23:11.196Z,94.00
2019-01-27T01:25:38.932Z,93.90
2019-01-27T01:28:06.547Z,94.00
2019-01-27T01:30:34.309Z,94.30
2019-01-27T01:33:01.996Z,94.50
2019-01-27T01:35:29.687Z,94.70
2019-01-27T01:37:57.408Z,94.80
2019-01-27T01:40:25.240Z,94.70
2019-01-27T01:42:53.019Z,94.60
2019-01-27T01:45:25.599Z,94.20
2019-01-27T01:47:53.266Z,93.40
2019-01-27T01:50:21.465Z,92.90
2019-01-27T01:52:49.266Z,92.60
2019-01-27T01:55:17.074Z,92.60
2019-01-27T01:57:45.062Z,92.40
2019-01-27T02:00:15.349Z,92.20
2019-01-27T02:02:43.198Z,92.20
2019-01-27T02:05:11.280Z,92.00
2019-01-27T02:07:38.972Z,91.80
2019-01-27T02:10:08.488Z,91.90
2019-01-27T02:12:36.313Z,92.40
2019-01-27T02:15:05.690Z,92.80
2019-01-27T02:17:33.345Z,92.70
2019-01-27T02:20:01.059Z,93.20
2019-01-27T02:22:29.958Z,92.80
2019-01-27T02:24:57.624Z,92.90
2019-01-27T02:27:25.308Z,91.90
2019-01-27T02:29:53.327Z,91.70
2019-01-27T02:32:21.021Z,92.00
2019-01-27T02:34:48.696Z,91.40
2019-01-27T02:37:16.466Z,91.30
2019-01-27T02:39:44.213Z,91.30
2019-01-27T02:42:12.130Z,90.70
2019-01-27T02:44:39.996Z,90.40
2019-01-27T02:47:07.658Z,90.20
2019-01-27T02:49:35.345Z,90.20
2019-01-27T02:52:03.621Z,90.30
2019-01-27T02:54:31.379Z,90.50
2019-01-27T02:57:00.574Z,91.10
2019-01-27T02:59:28.322Z,91.10
2019-01-27T03:01:56.426Z,91.10
2019-01-27T03:04:24.281Z,91.60
2019-01-27T03:07:02.580Z,91.80
2019-01-27T03:09:39.489Z,91.80
2019-01-27T03:12:07.349Z,92.30
2019-01-27T03:14:35.018Z,92.50
2019-01-27T03:17:03.303Z,92.70
2019-01-27T03:19:35.221Z,92.70
2019-01-27T03:22:00.700Z,92.10
2019-01-27T03:24:28.559Z,91.20
2019-01-27T03:26:56.191Z,90.50
2019-01-27T03:29:23.852Z,90.50
2019-01-27T03:31:51.770Z,90.30
2019-01-27T03:34:19.443Z,90.30
2019-01-27T03:36:47.140Z,90.30
2019-01-27T03:39:14.893Z,90.60
2019-01-27T03:41:42.551Z,90.80
2019-01-27T03:44:10.206Z,90.30
2019-01-27T03:46:37.828Z,90.10
2019-01-27T03:49:06.336Z,90.50
2019-01-27T03:51:35.191Z,91.00
2019-01-27T03:54:03.723Z,91.40
2019-01-27T03:56:31.528Z,91.40
2019-01-27T03:58:59.345Z,91.40
2019-01-27T04:01:27.057Z,91.00
2019-01-27T04:03:54.689Z,91.20
2019-01-27T04:06:22.308Z,91.20
2019-01-27T04:08:49.950Z,91.00
2019-01-27T04:11:17.554Z,90.70
2019-01-27T04:13:45.799Z,90.30
2019-01-27T04:16:32.945Z,90.70
2019-01-27T04:19:13.842Z,90.40
2019-01-27T04:21:55.296Z,90.00
2019-01-27T04:24:35.382Z,89.20
2019-01-27T04:27:20.166Z,89.30
2019-01-27T04:29:59.375Z,88.30
2019-01-27T04:32:40.920Z,86.80
2019-01-27T04:35:22.586Z,86.90
2019-01-27T04:38:10.412Z,86.10
2019-01-27T04:40:46.180Z,87.10
2019-01-27T04:43:29.517Z,86.40
2019-01-27T04:45:57.134Z,85.10
2019-01-27T04:48:40.416Z,85.10
2019-01-27T04:51:24.591Z,85.10
2019-01-27T04:54:04.155Z,84.20
2019-01-27T04:56:47.587Z,82.90
2019-01-27T04:59:28.025Z,82.70
2019-01-27T05:02:09.873Z,82.70
2019-01-27T05:04:49.305Z,82.30
2019-01-27T05:07:28.786Z,83.80
2019-01-27T05:10:10.597Z,83.70
2019-01-27T05:12:58.540Z,83.80
2019-01-27T05:15:40.163Z,83.20
2019-01-27T05:18:19.281Z,83.00
2019-01-27T05:21:05.231Z,84.50
2019-01-27T05:23:42.574Z,85.20
2019-01-27T05:26:22.823Z,85.60
2019-01-27T05:29:04.809Z,84.30
2019-01-27T05:31:48.775Z,84.30
2019-01-27T05:34:31.350Z,85.80
2019-01-27T05:37:07.212Z,87.30
2019-01-27T05:39:47.628Z,87.80
2019-01-27T05:42:39.721Z,88.60
2019-01-27T05:45:11.180Z,87.90
2019-01-27T05:47:51.461Z,86.90
2019-01-27T05:50:35.823Z,86.10
2019-01-27T05:53:16.903Z,85.90
2019-01-27T05:55:45.120Z,87.10
2019-01-27T06:01:17.641Z,88.40
2019-01-27T06:03:58.072Z,89.30
2019-01-27T06:06:38.514Z,89.50
2019-01-27T06:09:18.701Z,88.80
2019-01-27T06:11:58.867Z,89.90
2019-01-27T06:15:06.708Z,88.70
2019-01-27T06:17:28.501Z,88.70
2019-01-27T06:20:09.456Z,89.40
2019-01-27T06:22:51.319Z,90.10
2019-01-27T06:25:30.927Z,89.80
2019-01-27T06:28:11.532Z,90.30
2019-01-27T06:30:53.799Z,90.70
2019-01-27T06:33:54.924Z,90.40
2019-01-27T06:36:35.949Z,90.40
2019-01-27T06:39:16.832Z,90.80
2019-01-27T06:41:57.468Z,90.30
2019-01-27T06:44:37.862Z,89.30
2019-01-27T06:47:20.064Z,88.40
2019-01-27T06:50:00.803Z,87.90
2019-01-27T06:52:42.130Z,89.10
2019-01-27T06:55:21.875Z,90.50
2019-01-27T06:58:03.711Z,90.90
2019-01-27T07:01:18.442Z,91.20
2019-01-27T07:03:54.995Z,91.20
2019-01-27T07:06:54.501Z,91.60
2019-01-27T07:12:59.649Z,90.50
2019-01-27T07:16:06.414Z,90.10
2019-01-27T07:19:04.810Z,90.00
2019-01-27T07:22:05.492Z,89.40
2019-01-27T07:24:42.408Z,89.40
2019-01-27T07:31:05.532Z,90.40
2019-01-27T07:34:05.233Z,90.70
2019-01-27T07:43:48.868Z,91.30
2019-01-27T07:46:03.455Z,91.10
2019-01-27T07:49:03.190Z,89.00
2019-01-27T07:52:04.296Z,85.00
2019-01-27T07:55:08.930Z,83.40
2019-01-27T07:58:16.132Z,81.40
2019-01-27T08:01:02.022Z,79.80
2019-01-27T08:03:49.126Z,77.40
2019-01-27T08:06:56.944Z,76.70
2019-01-27T08:09:56.148Z,75.50
2019-01-27T08:12:38.743Z,77.50
2019-01-27T08:15:27.948Z,78.50
2019-01-27T08:18:27.522Z,80.10
2019-01-27T08:21:36.876Z,81.10
2019-01-27T08:24:32.618Z,81.70
2019-01-27T08:27:29.486Z,82.40
2019-01-27T08:30:29.386Z,81.80
2019-01-27T08:36:44.338Z,82.30
2019-01-27T08:39:31.406Z,82.40
2019-01-27T08:42:37.960Z,81.70
2019-01-27T08:45:26.185Z,82.40
2019-01-27T08:48:26.483Z,81.80
2019-01-27T08:51:42.631Z,82.50
2019-01-27T08:53:49.775Z,81.90
2019-01-27T08:56:21.891Z,81.10
2019-01-27T08:59:03.571Z,79.90
2019-01-27T09:02:05.738Z,80.70
2019-01-27T09:04:59.484Z,80.40
2019-01-27T09:07:59.640Z,79.20
2019-01-27T09:13:49.839Z,79.10
2019-01-27T09:16:50.481Z,79.70
2019-01-27T09:19:50.032Z,79.90
2019-01-27T09:22:49.509Z,80.10
2019-01-27T09:25:52.566Z,81.00
2019-01-27T09:29:27.216Z,80.90
2019-01-27T09:31:19.315Z,81.10
2019-01-27T09:36:48.767Z,80.30
2019-01-27T09:39:37.024Z,81.10
2019-01-27T09:42:19.960Z,81.10
2019-01-27T09:44:54.168Z,80.60
2019-01-27T09:47:39.483Z,81.50
2019-01-27T09:50:28.261Z,81.90
2019-01-27T09:53:18.053Z,81.30
2019-01-27T09:56:11.257Z,80.70
2019-01-27T09:58:56.613Z,81.50
2019-01-27T10:01:43.543Z,77.70
2019-01-27T10:04:42.349Z,78.20
2019-01-27T10:07:29.845Z,77.10
2019-01-27T10:10:09.090Z,77.90
2019-01-27T10:12:50.608Z,76.30
2019-01-27T10:15:52.592Z,75.60
2019-01-27T10:18:32.731Z,75.70
2019-01-27T10:21:19.808Z,76.30
2019-01-27T10:23:53.682Z,74.50
2019-01-27T10:26:40.836Z,73.80
2019-01-27T10:29:23.833Z,74.30
2019-01-27T10:32:00.718Z,75.00
2019-01-27T10:34:53.383Z,76.20
2019-01-27T10:37:40.553Z,76.90
2019-01-27T10:40:39.646Z,78.10
2019-01-27T10:43:29.816Z,78.00
2019-01-27T10:46:22.696Z,77.80
2019-01-27T10:49:13.015Z,77.60
2019-01-27T10:51:48.379Z,77.80
2019-01-27T10:54:40.190Z,77.60
2019-01-27T10:57:13.341Z,77.10
2019-01-27T11:00:06.420Z,76.00
2019-01-27T11:02:49.844Z,75.50
2019-01-27T11:05:35.902Z,74.00
2019-01-27T11:08:38.540Z,72.90
2019-01-27T11:11:22.939Z,71.20
2019-01-27T11:13:58.510Z,70.90
2019-01-27T11:16:54.830Z,70.70
2019-01-27T11:19:43.747Z,71.10
2019-01-27T11:22:30.984Z,71.70
2019-01-27T11:25:16.614Z,72.00
2019-01-27T11:28:09.393Z,72.90
2019-01-27T11:31:05.455Z,74.30
2019-01-27T11:33:52.538Z,75.20
2019-01-27T11:36:39.500Z,76.60
2019-01-27T11:39:26.278Z,75.40
2019-01-27T11:42:12.186Z,76.20
2019-01-27T11:45:11.063Z,77.70
2019-01-27T11:48:07.522Z,78.10
2019-01-27T11:50:55.085Z,78.10
2019-01-27T11:53:22.833Z,76.70
2019-01-27T11:55:50.571Z,76.60
2019-01-27T11:58:18.275Z,76.20
2019-01-27T12:00:49.897Z,76.40
2019-01-27T12:03:17.820Z,76.30
2019-01-27T12:05:45.729Z,76.70
2019-01-27T12:08:13.512Z,77.30
2019-01-27T12:10:41.511Z,77.50
2019-01-27T12:13:09.458Z,77.40
2019-01-27T12:15:37.771Z,77.60
2019-01-27T12:18:05.928Z,77.60
2019-01-27T12:20:35.077Z,77.90
2019-01-27T12:23:02.894Z,76.30
2019-01-27T12:25:30.810Z,76.60
2019-01-27T12:27:58.778Z,76.50
2019-01-27T12:30:26.681Z,75.10
2019-01-27T12:32:54.503Z,75.40
2019-01-27T12:35:22.292Z,73.00
2019-01-27T12:37:50.360Z,73.30
2019-01-27T12:40:22.341Z,65.30
2019-01-27T12:42:50.533Z,63.20
2019-01-27T12:45:19.166Z,65.10
2019-01-27T12:47:52.056Z,63.20
2019-01-27T12:50:20.806Z,63.80
2019-01-27T12:52:49.515Z,60.80
2019-01-27T12:55:17.441Z,54.70
2019-01-27T12:57:45.419Z,57.30
2019-01-27T13:00:19.374Z,55.30
2019-01-27T13:02:47.521Z,54.10
2019-01-27T13:05:15.526Z,54.40
2019-01-27T13:07:45.718Z,55.60
2019-01-27T13:10:17.123Z,57.70
2019-01-27T13:12:45.225Z,58.60
2019-01-27T13:15:14.415Z,59.30
2019-01-27T13:17:42.175Z,60.90
2019-01-27T13:20:10.518Z,61.00
2019-01-27T13:22:38.420Z,59.50
2019-01-27T13:25:08.022Z,58.40
2019-01-27T13:27:37.616Z,58.10
2019-01-27T13:30:17.646Z,58.30
2019-01-27T13:32:45.873Z,59.70
2019-01-27T13:35:13.952Z,60.50
2019-01-27T13:37:44.250Z,59.80
2019-01-27T13:40:16.748Z,60.00
2019-01-27T13:42:45.002Z,59.10
2019-01-27T13:45:15.519Z,59.30
2019-01-27T13:47:43.375Z,59.90
2019-01-27T13:50:11.761Z,61.60
2019-01-27T13:52:39.634Z,62.50
2019-01-27T13:55:11.087Z,61.10
2019-01-27T13:57:38.830Z,59.90
2019-01-27T14:00:09.891Z,59.50
2019-01-27T14:02:39.031Z,58.30
2019-01-27T14:05:07.567Z,58.20
2019-01-27T14:07:35.474Z,57.20
2019-01-27T14:10:06.517Z,56.10
2019-01-27T14:12:34.309Z,55.30
2019-01-27T14:15:02.354Z,55.00
2019-01-27T14:17:31.085Z,53.80
2019-01-27T14:19:59.353Z,54.60
2019-01-27T14:22:28.234Z,55.70
2019-01-27T14:24:56.156Z,56.40
2019-01-27T14:27:23.856Z,57.20
2019-01-27T14:29:52.275Z,58.10
2019-01-27T14:32:20.020Z,59.10
2019-01-27T14:34:48.199Z,59.90
2019-01-27T14:37:21.979Z,60.50
2019-01-27T14:39:45.545Z,61.40
2019-01-27T14:42:13.500Z,62.20
2019-01-27T14:44:41.389Z,63.00
2019-01-27T14:47:09.202Z,64.30
2019-01-27T14:49:37.394Z,64.20
2019-01-27T14:52:05.325Z,64.50
2019-01-27T14:54:33.320Z,65.00
2019-01-27T14:57:01.108Z,65.70
2019-01-27T14:59:28.944Z,66.10
2019-01-27T15:01:56.707Z,66.10
2019-01-27T15:04:25.809Z,66.70
2019-01-27T15:06:53.680Z,66.90
2019-01-27T15:09:21.822Z,67.70
2019-01-27T15:11:49.819Z,68.10
2019-01-27T15:14:17.647Z,68.80
2019-01-27T15:16:46.708Z,69.60
2019-01-27T15:19:14.677Z,69.70
2019-01-27T15:21:42.386Z,70.80
2019-01-27T15:24:10.345Z,70.60
2019-01-27T15:26:38.399Z,71.20
2019-01-27T15:29:06.562Z,72.50
2019-01-27T15:31:34.383Z,72.80
2019-01-27T15:34:02.383Z,72.90
2019-01-27T15:36:30.301Z,73.30
2019-01-27T15:38:58.040Z,73.40
2019-01-27T15:41:25.857Z,73.70
2019-01-27T15:43:55.080Z,74.50
2019-01-27T15:46:22.752Z,75.40
2019-01-27T15:48:50.536Z,75.40
2019-01-27T15:51:20.250Z,75.60
2019-01-27T15:53:48.264Z,76.30
2019-01-27T15:56:16.036Z,77.90
2019-01-27T15:58:43.921Z,78.00
2019-01-27T16:01:16.861Z,79.30
2019-01-27T16:03:48.377Z,79.30
2019-01-27T16:06:16.265Z,79.80
2019-01-27T16:08:52.186Z,80.20
2019-01-27T16:11:15.712Z,80.50
2019-01-27T16:13:43.573Z,81.10
2019-01-27T16:16:11.428Z,80.60
2019-01-27T16:18:43.339Z,80.70
2019-01-27T16:21:11.312Z,80.90
2019-01-27T16:23:51.226Z,81.50
2019-01-27T16:26:40.860Z,81.60
2019-01-27T16:29:00.273Z,81.30
2019-01-27T16:31:47.554Z,81.40
2019-01-27T16:34:36.604Z,81.50
2019-01-27T16:37:06.341Z,82.20
2019-01-27T16:39:34.141Z,82.20
2019-01-27T16:42:08.100Z,82.50
2019-01-27T16:44:36.142Z,82.10
2019-01-27T16:47:06.930Z,82.30
2019-01-27T16:49:34.616Z,82.30
2019-01-27T16:52:02.653Z,83.50
2019-01-27T16:54:30.527Z,82.60
2019-01-27T16:56:58.337Z,82.70
2019-01-27T16:59:26.072Z,82.70
2019-01-27T17:01:53.883Z,81.90
2019-01-27T17:04:21.760Z,82.20
2019-01-27T17:06:49.594Z,81.80
2019-01-27T17:09:17.436Z,81.20
2019-01-27T17:11:45.891Z,80.80
2019-01-27T17:14:14.227Z,80.60
2019-01-27T17:16:43.989Z,81.10
2019-01-27T17:19:11.882Z,82.10
2019-01-27T17:21:39.802Z,83.00
2019-01-27T17:24:07.792Z,83.40
2019-01-27T17:26:35.629Z,82.00
2019-01-27T17:29:04.132Z,81.10
2019-01-27T17:31:31.948Z,81.40
2019-01-27T17:33:59.881Z,80.80
2019-01-27T17:36:27.642Z,80.60
2019-01-27T17:40:22.468Z,79.30
2019-01-27T17:41:36.754Z,77.20
2019-01-27T17:44:04.828Z,77.00
2019-01-27T17:46:32.650Z,77.80
2019-01-27T17:49:03.470Z,77.10
2019-01-27T17:51:32.839Z,76.20
2019-01-27T17:54:08.362Z,76.90
2019-01-27T17:58:03.509Z,77.00
2019-01-27T18:01:06.902Z,76.80
2019-01-27T18:03:50.026Z,76.30
2019-01-27T18:09:31.413Z,76.90
2019-01-27T18:12:21.147Z,78.20
2019-01-27T18:15:01.807Z,78.60
2019-01-27T18:17:42.271Z,81.60
2019-01-27T18:20:12.157Z,81.90
2019-01-27T18:22:39.873Z,82.30
2019-01-27T18:25:27.175Z,83.00
2019-01-27T18:28:14.278Z,83.40
2019-01-27T18:31:01.431Z,83.90
2019-01-27T18:33:41.450Z,83.40
2019-01-27T18:36:21.782Z,82.90
2019-01-27T18:39:02.054Z,83.50
2019-01-27T18:41:29.881Z,83.70
2019-01-27T18:44:17.016Z,84.30
2019-01-27T18:47:04.131Z,84.20
2019-01-27T18:49:44.415Z,84.40
2019-01-27T18:52:31.247Z,84.60
2019-01-27T18:55:25.980Z,84.90
2019-01-27T18:58:15.118Z,85.00
2019-01-27T19:01:14.333Z,85.60
2019-01-27T19:04:06.683Z,85.80
2019-01-27T19:07:05.801Z,86.50
2019-01-27T19:09:54.626Z,83.80
2019-01-27T19:12:40.900Z,82.20
2019-01-27T19:15:46.618Z,81.90
2019-01-27T19:18:46.074Z,83.10
2019-01-27T19:21:45.102Z,83.30
2019-01-27T19:24:50.379Z,83.70
2019-01-27T19:27:47.941Z,83.80
2019-01-27T19:30:47.889Z,84.90
2019-01-27T19:33:50.118Z,85.50
2019-01-27T19:36:49.680Z,84.70
2019-01-27T19:39:52.030Z,85.00
2019-01-27T19:42:51.266Z,85.90
2019-01-27T19:45:50.465Z,87.20
2019-01-27T19:48:49.751Z,87.70
2019-01-27T19:51:51.954Z,88.40
2019-01-27T19:54:51.452Z,89.00
2019-01-27T19:57:50.951Z,89.40
2019-01-27T20:00:50.074Z,89.60
2019-01-27T20:03:43.143Z,90.00
2019-01-27T20:06:42.510Z,90.00
2019-01-27T20:09:37.657Z,90.00
2019-01-27T20:12:42.761Z,90.20
2019-01-27T20:15:33.036Z,90.20
2019-01-27T20:18:39.643Z,90.20
2019-01-27T20:21:39.088Z,90.40
2019-01-27T20:24:33.738Z,90.50
2019-01-27T20:27:33.710Z,90.60
2019-01-27T20:30:32.986Z,90.70
2019-01-27T20:33:21.062Z,90.60
2019-01-27T20:36:27.576Z,90.90
2019-01-27T20:39:33.440Z,91.00
2019-01-27T20:42:32.784Z,90.90
2019-01-27T20:45:21.808Z,90.90
2019-01-27T20:48:24.231Z,90.90
2019-01-27T20:51:29.719Z,90.80
2019-01-27T20:54:29.322Z,91.00
2019-01-27T20:57:16.229Z,90.90
2019-01-27T21:00:15.725Z,91.00
2019-01-27T21:03:20.943Z,91.10
2019-01-27T21:06:09.681Z,90.90
2019-01-27T21:09:09.314Z,91.00
2019-01-27T21:12:15.795Z,91.10
2019-01-27T21:15:21.201Z,91.20
2019-01-27T21:18:16.419Z,91.20
2019-01-27T21:20:56.243Z,91.30
2019-01-27T21:23:36.393Z,91.60
2019-01-27T21:26:16.443Z,91.50
2019-01-27T21:28:56.602Z,91.60
2019-01-27T21:31:36.734Z,91.70
2019-01-27T21:34:16.763Z,91.70
2019-01-27T21:36:57.002Z,91.60
2019-01-27T21:39:39.154Z,91.40
2019-01-27T21:42:19.355Z,91.70
2019-01-27T21:44:59.330Z,91.80
2019-01-27T21:47:39.573Z,91.80
2019-01-27T21:50:20.430Z,91.80
2019-01-27T21:52:48.278Z,91.70
2019-01-27T21:55:16.239Z,90.70
2019-01-27T21:57:44.221Z,90.00
2019-01-27T22:00:21.181Z,88.10
2019-01-27T22:02:49.077Z,87.90
2019-01-27T22:05:16.996Z,87.40
2019-01-27T22:07:45.078Z,87.20
2019-01-27T22:10:13.634Z,87.30
2019-01-27T22:12:41.850Z,86.60
2019-01-27T22:15:10.058Z,86.40
2019-01-27T22:17:37.765Z,86.50
2019-01-27T22:20:07.108Z,85.00
2019-01-27T22:22:35.046Z,83.70
2019-01-27T22:25:04.658Z,84.30
2019-01-27T22:27:35.296Z,84.40
2019-01-27T22:30:04.463Z,83.80
2019-01-27T22:32:32.441Z,84.00
2019-01-27T22:35:00.505Z,84.80
2019-01-27T22:37:28.369Z,85.90
2019-01-27T22:39:56.226Z,87.00
2019-01-27T22:42:23.938Z,88.30
2019-01-27T22:44:51.710Z,88.60
2019-01-27T22:47:19.527Z,89.40
2019-01-27T22:49:47.649Z,89.60
2019-01-27T22:52:15.373Z,90.20
2019-01-27T22:54:43.130Z,90.10
2019-01-27T22:57:12.359Z,88.50
2019-01-27T22:59:40.126Z,88.40
2019-01-27T23:02:08.188Z,87.90
2019-01-27T23:04:36.187Z,87.70
2019-01-27T23:07:03.860Z,90.00
2019-01-27T23:09:31.709Z,90.10
2019-01-27T23:11:59.454Z,90.70
2019-01-27T23:14:27.200Z,91.40
2019-01-27T23:16:55.027Z,91.60
2019-01-27T23:19:22.763Z,91.90
2019-01-27T23:21:50.413Z,92.30
2019-01-27T23:24:18.599Z,92.10
2019-01-27T23:26:46.339Z,92.00
2019-01-27T23:29:14.063Z,92.00
2019-01-27T23:31:41.801Z,91.60
2019-01-27T23:34:09.689Z,90.70
2019-01-27T23:36:44.367Z,90.40
2019-01-27T23:39:12.503Z,90.30
2019-01-27T23:41:40.219Z,89.80
2019-01-27T23:44:08.183Z,88.00
2019-01-27T23:46:35.978Z,87.40
2019-01-27T23:49:03.889Z,87.00
2019-01-27T23:51:31.659Z,87.40
2019-01-27T23:53:59.379Z,86.00
2019-01-27T23:56:27.300Z,86.80
2019-01-27T23:58:55.053Z,87.70
